Terminal Aerodrome Forecast
Issued by NWS Shreveport, LA

Home | Current Version | Previous Version | Text Only | Print | Product List | Glossary On
Versions: 1 2 3 4 5 6 7 8 9 10 11 12 13 14 15 16 17
475
FTUS44 KSHV 271746
TAFSHV
TAF
KSHV 271746Z 2718/2818 20012G18KT P6SM SCT030 BKN050
      TEMPO 2718/2720 BKN025
     FM280100 18010KT P6SM SKC
     FM280700 19007KT P6SM BKN020
      TEMPO 2809/2813 OVC010
     FM281500 21012G20KT P6SM SCT040 OVC150=

USA.gov is the U.S. government's official web portal to all federal, state and local government web resources and services.